Time;durP1;ratioP1;P1;durP2;ratioP2;P2;SDS_P1;SDS_P2;PMS_P1;PMS_P2;Temp;Humidity;BMP_temperature;BMP_pressure;BME280_temperature;BME280_humidity;BME280_pressure;Samples;Min_cycle;Max_cycle;Signal;HPM_P1;HPM_P2
2021/12/12 00:02:44;;;;;;;17.48;10.32;;;;;;;3.10;79.15;97435.94;5074063;28;20063;-74
2021/12/12 00:05:15;;;;;;;15.20;10.55;;;;;;;3.09;79.70;97436.88;5073695;28;20052;-74
2021/12/12 00:07:44;;;;;;;14.77;10.95;;;;;;;3.09;79.86;97437.69;5073434;28;20056;-74
2021/12/12 00:10:18;;;;;;;15.13;10.55;;;;;;;3.09;79.90;97442.84;5073673;28;20513;-74
2021/12/12 00:12:50;;;;;;;14.90;10.23;;;;;;;3.08;80.00;97440.38;5073847;28;20045;-74
2021/12/12 00:15:19;;;;;;;15.60;10.82;;;;;;;3.10;80.17;97443.66;5073833;28;20052;-74
2021/12/12 00:17:48;;;;;;;13.00;10.50;;;;;;;3.11;80.28;97442.75;5073307;28;20052;-74
2021/12/12 00:20:19;;;;;;;15.25;9.63;;;;;;;3.09;79.98;97447.19;5073267;28;20052;-74
2021/12/12 00:22:48;;;;;;;14.63;9.88;;;;;;;3.09;80.29;97452.34;5073120;28;20051;-74
2021/12/12 00:25:17;;;;;;;15.00;9.20;;;;;;;3.10;80.11;97453.97;5073557;28;20055;-74
2021/12/12 00:27:45;;;;;;;14.85;9.88;;;;;;;3.12;80.12;97461.59;5073245;28;20048;-74
2021/12/12 00:30:17;;;;;;;16.60;11.07;;;;;;;3.12;80.48;97462.41;5072028;28;20052;-74
2021/12/12 00:32:44;;;;;;;16.50;10.65;;;;;;;3.10;80.19;97464.28;5073259;28;20047;-74
2021/12/12 00:35:15;;;;;;;16.98;11.00;;;;;;;3.07;80.53;97462.75;5072970;28;20053;-74
2021/12/12 00:37:44;;;;;;;16.73;10.50;;;;;;;3.06;80.56;97466.28;5073102;28;20044;-74
2021/12/12 00:40:24;;;;;;;19.65;10.57;;;;;;;3.03;80.61;97468.25;5072864;28;20059;-74
2021/12/12 00:42:54;;;;;;;21.65;10.82;;;;;;;3.04;80.54;97475.88;5072832;28;20537;-74
2021/12/12 00:45:23;;;;;;;14.23;9.55;;;;;;;3.06;80.47;97478.31;5072770;28;20060;-74
2021/12/12 00:47:51;;;;;;;16.20;10.07;;;;;;;3.06;80.54;97473.16;5072457;28;20048;-74
2021/12/12 00:50:27;;;;;;;14.48;8.95;;;;;;;3.07;80.70;97477.41;5072919;28;20048;-74
2021/12/12 00:52:56;;;;;;;12.85;8.80;;;;;;;3.09;80.63;97493.59;5072910;28;20098;-74
2021/12/12 00:55:25;;;;;;;14.43;9.73;;;;;;;3.09;80.83;97489.25;5072733;28;20052;-74
2021/12/12 00:57:54;;;;;;;14.25;9.48;;;;;;;3.09;80.97;97485.84;5072350;28;20048;-73
2021/12/12 01:00:25;;;;;;;16.67;9.73;;;;;;;3.09;80.64;97485.84;5072416;28;20056;-74
2021/12/12 01:02:54;;;;;;;15.75;9.02;;;;;;;3.09;80.78;97486.66;5072721;28;20056;-74
2021/12/12 01:05:24;;;;;;;14.05;8.25;;;;;;;3.12;80.52;97492.53;5072393;28;20433;-74
2021/12/12 01:07:53;;;;;;;13.88;9.20;;;;;;;3.14;80.55;97481.16;5072430;28;20056;-74
2021/12/12 01:10:25;;;;;;;11.82;8.88;;;;;;;3.14;81.01;97495.81;5072353;28;20079;-73
2021/12/12 01:12:55;;;;;;;13.50;8.90;;;;;;;3.15;80.56;97498.28;5072351;28;20049;-74
2021/12/12 01:15:27;;;;;;;15.85;9.70;;;;;;;3.15;80.69;97498.28;5072466;28;20052;-74
2021/12/12 01:17:59;;;;;;;13.05;8.82;;;;;;;3.16;80.32;97499.09;5072023;28;20048;-74
2021/12/12 01:20:36;;;;;;;12.75;8.52;;;;;;;3.15;80.27;97493.13;5072292;28;20052;-74
2021/12/12 01:23:10;;;;;;;13.10;8.18;;;;;;;3.15;80.26;97500.88;5072125;28;20064;-74
2021/12/12 01:25:44;;;;;;;12.60;7.97;;;;;;;3.16;80.10;97499.94;5072398;28;20510;-74
2021/12/12 01:28:13;;;;;;;11.55;8.40;;;;;;;3.16;80.45;97499.09;5071811;28;20509;-74
2021/12/12 01:30:41;;;;;;;15.23;8.55;;;;;;;3.17;80.45;97500.75;5072331;28;20049;-74
2021/12/12 01:33:10;;;;;;;12.48;8.10;;;;;;;3.17;79.94;97506.75;5072279;28;20055;-74
2021/12/12 01:35:40;;;;;;;10.10;7.93;;;;;;;3.17;80.21;97506.75;5072406;28;20048;-74
2021/12/12 01:40:58;;;;;;;13.60;7.47;;;;;;;3.19;80.05;97504.03;5072103;28;20051;-74
2021/12/12 01:43:31;;;;;;;13.48;7.13;;;;;;;3.18;79.50;97515.28;5072011;28;20056;-74
2021/12/12 01:46:03;;;;;;;8.45;6.70;;;;;;;3.19;80.11;97511.75;5071616;28;20048;-74
2021/12/12 01:48:36;;;;;;;10.32;7.13;;;;;;;3.19;79.97;97510.03;5072089;28;20048;-74
2021/12/12 01:51:07;;;;;;;11.20;6.80;;;;;;;3.21;80.21;97517.63;5072207;28;20052;-73
2021/12/12 01:53:38;;;;;;;13.30;7.05;;;;;;;3.22;79.99;97514.94;5071823;28;20052;-74
2021/12/12 01:56:12;;;;;;;14.18;7.03;;;;;;;3.21;79.75;97528.75;5071767;28;20098;-74
2021/12/12 01:58:42;;;;;;;8.25;6.95;;;;;;;3.21;79.53;97523.59;5071664;28;20048;-74
2021/12/12 02:01:12;;;;;;;12.80;7.72;;;;;;;3.21;79.24;97523.59;5072076;28;20067;-74
2021/12/12 02:03:44;;;;;;;24.95;8.68;;;;;;;3.24;79.39;97527.75;5071773;28;20045;-74
2021/12/12 02:06:17;;;;;;;15.95;8.05;;;;;;;3.23;80.06;97529.47;5071670;28;20076;-73
2021/12/12 02:08:47;;;;;;;16.73;10.40;;;;;;;3.23;79.83;97521.72;5071794;28;20044;-74
2021/12/12 02:11:20;;;;;;;13.15;8.93;;;;;;;3.23;80.34;97521.72;5071614;28;20052;-74
2021/12/12 02:13:49;;;;;;;;;;;;;;;3.27;80.13;97522.34;5072206;28;20048;-74
2021/12/12 02:16:18;;;;;;;17.80;10.10;;;;;;;3.24;79.98;97523.41;5071444;28;20340;-74
2021/12/12 02:18:50;;;;;;;16.00;9.75;;;;;;;3.24;80.12;97525.97;5071861;28;20048;-74
2021/12/12 02:21:26;;;;;;;16.63;10.13;;;;;;;3.24;79.98;97527.75;5071482;28;20061;-74
2021/12/12 02:35:09;;;;;;;11.48;8.43;;;;;;;3.26;80.32;97526.69;5087962;28;20028;-73
2021/12/12 02:37:37;;;;;;;15.10;8.70;;;;;;;3.25;79.96;97530.19;5096401;28;20065;-73
2021/12/12 02:40:09;;;;;;;10.32;7.60;;;;;;;3.24;80.26;97536.28;5086670;28;20045;-74
2021/12/12 02:42:37;;;;;;;11.75;6.85;;;;;;;3.24;80.53;97522.59;5072431;28;20052;-73
2021/12/12 02:45:09;;;;;;;12.73;6.90;;;;;;;3.23;79.96;97521.72;5081682;28;20048;-73
2021/12/12 02:47:39;;;;;;;12.10;6.95;;;;;;;3.22;79.93;97520.09;5089110;28;20066;-74
2021/12/12 02:50:13;;;;;;;10.90;6.10;;;;;;;3.22;79.78;97516.72;5092787;28;20102;-73
2021/12/12 02:52:44;;;;;;;9.57;6.30;;;;;;;3.21;79.60;97520.22;5075915;28;20063;-74
2021/12/12 02:55:17;;;;;;;13.30;7.28;;;;;;;3.21;79.71;97522.78;5082744;28;20041;-74
2021/12/12 02:57:45;;;;;;;10.20;6.75;;;;;;;3.23;80.11;97531.22;5075633;28;20067;-74
2021/12/12 03:00:17;;;;;;;10.05;7.25;;;;;;;3.23;79.82;97523.50;5075045;28;20059;-74
2021/12/12 03:02:48;;;;;;;12.13;7.15;;;;;;;3.24;80.17;97531.13;5075526;28;20048;-74
2021/12/12 03:05:21;;;;;;;9.23;6.22;;;;;;;3.23;79.73;97526.88;5074690;28;20497;-74
2021/12/12 03:07:49;;;;;;;12.95;7.97;;;;;;;3.22;78.86;97522.69;5074910;28;20052;-74
2021/12/12 03:10:23;;;;;;;9.82;6.88;;;;;;;3.22;79.19;97519.28;5075067;28;20052;-74
2021/12/12 03:12:52;;;;;;;9.10;6.18;;;;;;;3.22;79.53;97530.41;5074692;28;20134;-74
2021/12/12 03:15:23;;;;;;;9.27;6.43;;;;;;;3.23;79.60;97536.38;5074964;28;20052;-74
2021/12/12 03:17:54;;;;;;;10.95;7.03;;;;;;;3.24;78.93;97531.13;5074437;28;20494;-74
2021/12/12 03:20:26;;;;;;;11.60;7.47;;;;;;;3.25;78.97;97540.50;5074934;28;20056;-74
2021/12/12 03:22:57;;;;;;;12.30;7.72;;;;;;;3.26;79.39;97537.00;5074602;28;20048;-74
2021/12/12 03:25:27;;;;;;;10.70;7.28;;;;;;;3.27;79.41;97530.88;5074550;28;20425;-74
2021/12/12 03:27:54;;;;;;;13.25;7.97;;;;;;;3.28;79.81;97526.59;5074526;28;20052;-74
2021/12/12 03:30:22;;;;;;;11.30;7.40;;;;;;;3.28;79.61;97529.97;5074400;28;20502;-74
2021/12/12 03:32:50;;;;;;;8.90;6.72;;;;;;;3.28;79.67;97529.97;5074133;28;20044;-74
2021/12/12 03:35:18;;;;;;;12.30;7.43;;;;;;;3.28;79.50;97524.81;5074359;28;20061;-74
2021/12/12 03:37:46;;;;;;;12.57;7.05;;;;;;;3.28;79.73;97527.41;5074125;28;20056;-74
2021/12/12 03:40:18;;;;;;;10.35;6.30;;;;;;;3.28;79.88;97532.56;5074047;28;20390;-74
2021/12/12 03:42:52;;;;;;;11.68;6.90;;;;;;;3.25;79.61;97539.69;5074156;28;20054;-73
2021/12/12 03:45:21;;;;;;;10.38;6.95;;;;;;;3.25;79.85;97550.00;5074278;28;20044;-74
2021/12/12 03:47:52;;;;;;;9.65;6.72;;;;;;;3.24;79.76;97544.03;5073983;28;20052;-74
2021/12/12 03:50:24;;;;;;;13.30;7.13;;;;;;;3.26;79.89;97552.47;5074045;28;20056;-74
2021/12/12 03:52:53;;;;;;;10.32;6.53;;;;;;;3.24;78.60;97550.94;5074006;28;20049;-74
2021/12/12 03:55:22;;;;;;;11.63;6.05;;;;;;;3.20;77.76;97552.91;5073825;28;20045;-74
2021/12/12 03:57:52;;;;;;;10.75;6.32;;;;;;;3.20;78.81;97558.06;5073703;28;20052;-74
2021/12/12 04:00:24;;;;;;;10.70;6.45;;;;;;;3.22;79.19;97550.22;5073771;28;20060;-73
2021/12/12 04:02:52;;;;;;;16.42;6.35;;;;;;;3.22;78.99;97550.22;5073821;28;20059;-74
2021/12/12 04:05:20;;;;;;;11.77;6.45;;;;;;;3.23;78.37;97551.84;5073382;28;20048;-74
2021/12/12 04:07:48;;;;;;;10.45;6.32;;;;;;;3.23;78.27;97552.69;5073294;28;20075;-74
2021/12/12 04:10:20;;;;;;;10.65;6.88;;;;;;;3.25;79.07;97561.13;5073673;28;20068;-74
2021/12/12 04:12:49;;;;;;;9.73;6.10;;;;;;;3.26;79.00;97565.38;5073482;28;20398;-74
2021/12/12 04:15:18;;;;;;;8.27;6.22;;;;;;;3.23;78.59;97568.16;5073496;28;20052;-74
2021/12/12 04:17:45;;;;;;;10.23;5.88;;;;;;;3.24;77.89;97569.00;5073404;28;20062;-74
2021/12/12 04:20:16;;;;;;;10.93;6.78;;;;;;;3.22;77.89;97571.69;5073319;28;20090;-74
2021/12/12 04:22:44;;;;;;;8.90;5.72;;;;;;;3.23;78.34;97573.31;5073754;28;20048;-74
2021/12/12 04:25:12;;;;;;;9.10;5.95;;;;;;;3.21;77.66;97569.19;5075196;28;20456;-73
2021/12/12 04:27:40;;;;;;;11.45;5.75;;;;;;;3.18;77.21;97577.97;5074557;28;20048;-74
2021/12/12 04:30:11;;;;;;;9.20;5.55;;;;;;;3.18;78.02;97580.56;5085536;22;20056;-75
2021/12/12 04:32:40;;;;;;;8.80;6.15;;;;;;;3.19;77.74;97576.22;5073618;28;20052;-75
2021/12/12 04:35:12;;;;;;;12.40;6.15;;;;;;;3.17;77.59;97573.78;5073305;28;20044;-75
2021/12/12 04:37:39;;;;;;;7.97;6.22;;;;;;;3.17;77.37;97571.19;5073128;28;20045;-75
2021/12/12 04:40:13;;;;;;;11.07;6.40;;;;;;;3.18;78.77;97575.41;5072984;28;20048;-74
2021/12/12 04:42:41;;;;;;;12.07;6.70;;;;;;;3.20;78.50;97572.72;5072935;28;20492;-75
2021/12/12 04:45:20;;;;;;;16.55;6.75;;;;;;;3.22;79.18;97582.00;5072615;28;20052;-76
2021/12/12 04:50:56;;;;;;;8.43;6.30;;;;;;;3.24;79.04;97579.31;4998185;28;20578;-75
2021/12/12 04:53:30;;;;;;;8.35;5.70;;;;;;;3.24;78.86;97574.97;5072571;28;20052;-74
2021/12/12 04:56:06;;;;;;;11.50;5.55;;;;;;;3.25;78.29;97576.59;5073128;28;20045;-74
2021/12/12 04:58:44;;;;;;;11.73;6.15;;;;;;;3.22;77.67;97587.16;5073149;28;20048;-74
2021/12/12 05:01:19;;;;;;;9.32;5.85;;;;;;;3.23;78.68;97583.63;5073408;28;20058;-75
2021/12/12 05:03:56;;;;;;;14.77;8.13;;;;;;;3.23;77.63;97578.47;5078513;28;20117;-75
2021/12/12 05:06:28;;;;;;;12.48;6.82;;;;;;;3.24;78.75;97577.53;5088841;28;20053;-74
2021/12/12 05:09:00;;;;;;;11.40;7.03;;;;;;;3.24;77.54;97580.13;5088653;28;20052;-74
2021/12/12 05:11:33;;;;;;;11.35;6.80;;;;;;;3.25;78.42;97576.59;5086817;28;20040;-74
2021/12/12 05:14:06;;;;;;;11.25;6.50;;;;;;;3.26;78.74;97592.91;5075910;28;20059;-75
2021/12/12 05:16:37;;;;;;;12.55;6.78;;;;;;;3.26;78.91;97598.88;5073835;28;20415;-75
2021/12/12 05:19:12;;;;;;;12.82;6.75;;;;;;;3.28;78.77;97598.78;5074796;28;20059;-75
2021/12/12 05:21:46;;;;;;;14.68;6.38;;;;;;;3.29;78.79;97598.66;5074478;28;20453;-76
2021/12/12 05:24:17;;;;;;;9.55;5.95;;;;;;;3.29;78.79;97603.00;5073127;28;20052;-75
2021/12/12 05:26:50;;;;;;;11.02;6.70;;;;;;;3.28;78.76;97602.19;5074209;28;20071;-75
2021/12/12 05:29:21;;;;;;;11.68;7.47;;;;;;;3.27;78.41;97591.97;5074183;28;20052;-74
2021/12/12 05:31:51;;;;;;;11.05;6.63;;;;;;;3.26;78.74;97604.03;5073719;28;20048;-75
2021/12/12 05:34:24;;;;;;;9.32;5.85;;;;;;;3.26;78.82;97601.47;5073539;28;20053;-75
2021/12/12 05:36:53;;;;;;;;;;;;;;;3.30;79.22;97602.88;5073252;28;20045;-75
2021/12/12 05:39:21;;;;;;;12.82;6.93;;;;;;;3.28;78.91;97607.34;5072607;28;19924;-74
2021/12/12 05:41:49;;;;;;;9.05;5.80;;;;;;;3.25;78.06;97606.72;5072583;28;20548;-75
2021/12/12 05:44:17;;;;;;;16.88;7.30;;;;;;;3.24;78.34;97600.75;5072174;28;20540;-75
2021/12/12 05:46:45;;;;;;;7.75;5.97;;;;;;;3.23;77.99;97599.09;5071780;28;20051;-74
2021/12/12 05:49:13;;;;;;;12.02;6.25;;;;;;;3.24;77.84;97610.25;5072057;28;20418;-75
2021/12/12 05:51:42;;;;;;;9.95;5.88;;;;;;;3.24;77.81;97610.25;5071804;28;20060;-75
2021/12/12 05:54:10;;;;;;;10.30;6.97;;;;;;;3.24;77.46;97615.41;5072245;28;20469;-76
2021/12/12 05:56:40;;;;;;;9.90;5.75;;;;;;;3.20;77.25;97616.56;5071711;28;20045;-75
2021/12/12 05:59:10;;;;;;;7.70;5.95;;;;;;;3.16;76.85;97618.53;5072238;28;20049;-75
2021/12/12 06:01:39;;;;;;;12.60;6.93;;;;;;;3.14;78.16;97620.38;5072237;28;20053;-75
2021/12/12 06:04:07;;;;;;;8.50;6.10;;;;;;;3.12;77.36;97621.44;5071898;28;20421;-75
2021/12/12 06:06:40;;;;;;;9.50;6.15;;;;;;;3.08;76.73;97625.97;5071413;28;20289;-75
2021/12/12 06:09:12;;;;;;;9.30;6.93;;;;;;;3.05;77.32;97624.44;5071765;28;20053;-75
2021/12/12 06:11:42;;;;;;;10.77;6.10;;;;;;;3.03;77.89;97613.41;5072021;28;20049;-75
2021/12/12 06:14:10;;;;;;;8.98;6.93;;;;;;;3.02;78.44;97610.97;5071979;28;20064;-75
2021/12/12 06:16:38;;;;;;;12.73;6.47;;;;;;;2.99;78.52;97618.91;5071735;28;20048;-75
2021/12/12 06:19:09;;;;;;;7.43;5.72;;;;;;;2.92;77.21;97609.97;5071950;28;20136;-74
2021/12/12 06:21:37;;;;;;;9.45;6.57;;;;;;;2.81;76.41;97616.69;5071732;28;20071;-75
2021/12/12 06:24:06;;;;;;;11.70;6.93;;;;;;;2.69;76.13;97617.56;5071971;28;20044;-75
2021/12/12 06:26:37;;;;;;;8.90;6.30;;;;;;;2.61;76.35;97614.69;5071491;28;20477;-75
2021/12/12 06:29:06;;;;;;;6.70;5.47;;;;;;;2.54;76.46;97632.34;5073511;28;20497;-75
2021/12/12 06:31:41;;;;;;;10.30;5.97;;;;;;;2.48;76.56;97632.75;5075793;28;20048;-74
2021/12/12 06:34:10;;;;;;;5.55;4.82;;;;;;;2.42;76.13;97631.41;5075877;28;20453;-75
2021/12/12 06:36:38;;;;;;;8.15;5.43;;;;;;;2.35;76.14;97639.69;5074873;28;20548;-75
2021/12/12 06:39:09;;;;;;;6.25;5.40;;;;;;;2.29;75.82;97638.34;5075246;28;20094;-75
2021/12/12 06:41:38;;;;;;;8.50;6.03;;;;;;;2.21;75.34;97643.19;5075459;28;20056;-75
2021/12/12 06:44:08;;;;;;;9.48;6.65;;;;;;;2.12;75.23;97651.50;5075200;28;20049;-75
2021/12/12 06:46:38;;;;;;;6.53;5.55;;;;;;;2.04;75.52;97646.91;5074739;28;20048;-74
2021/12/12 06:49:10;;;;;;;8.93;6.18;;;;;;;1.95;75.05;97650.09;5075000;28;20057;-75
2021/12/12 06:51:49;;;;;;;8.37;6.20;;;;;;;1.87;75.17;97645.44;5074985;28;20525;-75
2021/12/12 06:54:18;;;;;;;7.18;5.32;;;;;;;1.82;75.67;97644.94;5074825;28;20051;-75
2021/12/12 06:56:49;;;;;;;7.20;5.15;;;;;;;1.79;75.50;97642.53;5074668;28;20812;-75
2021/12/12 06:59:17;;;;;;;8.25;5.93;;;;;;;1.76;75.72;97650.47;5075064;28;20110;-75
2021/12/12 07:01:45;;;;;;;6.70;5.13;;;;;;;1.72;75.71;97659.31;5074912;28;20059;-75
2021/12/12 07:04:15;;;;;;;7.45;5.53;;;;;;;1.68;75.82;97655.28;5074907;28;20132;-75
2021/12/12 07:06:43;;;;;;;9.18;6.05;;;;;;;1.62;75.89;97654.78;5074306;28;20506;-75
2021/12/12 07:09:11;;;;;;;7.15;5.82;;;;;;;1.59;76.03;97660.09;5074801;28;20146;-75
2021/12/12 07:11:41;;;;;;;6.90;5.50;;;;;;;1.54;76.10;97658.75;5075046;28;20067;-75
2021/12/12 07:14:13;;;;;;;8.52;5.38;;;;;;;1.48;75.76;97657.41;5074817;28;20502;-74
2021/12/12 07:16:41;;;;;;;;;;;;;;;1.50;75.93;97665.03;5074850;28;20056;-75
2021/12/12 07:19:09;;;;;;;9.10;5.47;;;;;;;1.44;76.20;97666.22;5074394;28;19924;-75
2021/12/12 07:21:39;;;;;;;8.45;5.72;;;;;;;1.41;76.16;97671.59;5074585;28;20048;-75
2021/12/12 07:24:07;;;;;;;7.88;5.60;;;;;;;1.39;76.07;97673.44;5074586;28;20051;-75
2021/12/12 07:26:35;;;;;;;8.00;5.80;;;;;;;1.36;76.14;97674.44;5074019;28;20044;-75
2021/12/12 07:29:04;;;;;;;7.45;5.88;;;;;;;1.32;76.27;97682.47;5074104;28;20056;-75
2021/12/12 07:31:36;;;;;;;11.55;6.75;;;;;;;1.29;76.20;97692.91;5074478;28;20060;-75
2021/12/12 07:34:08;;;;;;;7.63;5.43;;;;;;;1.29;76.47;97682.63;5074298;28;20053;-75
2021/12/12 07:36:41;;;;;;;8.13;5.97;;;;;;;1.32;76.51;97682.47;5074072;28;20074;-75
2021/12/12 07:39:11;;;;;;;8.52;5.95;;;;;;;1.36;76.32;97686.50;5073744;28;20071;-75
2021/12/12 07:41:40;;;;;;;10.32;7.10;;;;;;;1.39;76.11;97686.28;5074505;28;20168;-75
2021/12/12 07:44:11;;;;;;;13.60;8.10;;;;;;;1.40;75.60;97685.34;5074344;28;20052;-75
2021/12/12 07:46:44;;;;;;;7.88;5.65;;;;;;;1.44;76.02;97692.78;5073972;28;20044;-75
2021/12/12 07:49:12;;;;;;;10.77;6.75;;;;;;;1.47;76.00;97685.81;5073952;28;20071;-74
2021/12/12 07:51:42;;;;;;;8.95;6.10;;;;;;;1.49;75.74;97677.06;5074148;28;20052;-75
2021/12/12 07:54:11;;;;;;;8.75;5.95;;;;;;;1.52;76.23;97674.28;5073989;28;20048;-75
2021/12/12 07:56:42;;;;;;;9.23;6.13;;;;;;;1.57;77.21;97681.69;5073699;28;20053;-75
2021/12/12 07:59:13;;;;;;;6.72;4.57;;;;;;;1.59;76.06;97680.69;5074233;28;20063;-75
2021/12/12 08:01:45;;;;;;;7.03;5.75;;;;;;;1.59;75.47;97690.16;5074464;28;20429;-75
2021/12/12 08:04:15;;;;;;;7.47;5.97;;;;;;;1.55;75.20;97680.97;5074181;28;20056;-75
2021/12/12 08:06:44;;;;;;;9.52;7.28;;;;;;;1.52;75.40;97689.72;5074205;28;20060;-75
2021/12/12 08:09:12;;;;;;;8.40;6.85;;;;;;;1.49;75.64;97687.34;5074599;28;20330;-75
2021/12/12 08:11:41;;;;;;;12.93;7.43;;;;;;;1.46;75.70;97682.38;5074194;28;20048;-75
2021/12/12 08:14:14;;;;;;;10.68;6.78;;;;;;;1.43;75.61;97677.44;5074431;28;20052;-75
2021/12/12 08:16:44;;;;;;;8.82;5.80;;;;;;;1.44;75.35;97679.09;5073972;28;20437;-75
2021/12/12 08:19:12;;;;;;;7.47;5.28;;;;;;;1.40;75.55;97678.47;5073732;28;20056;-75
2021/12/12 08:21:40;;;;;;;8.32;5.65;;;;;;;1.41;75.66;97674.16;5073657;28;20044;-75
2021/12/12 08:24:11;;;;;;;9.05;6.80;;;;;;;1.42;75.47;97673.22;5073862;28;20472;-74
2021/12/12 08:26:43;;;;;;;7.00;5.10;;;;;;;1.41;75.07;97681.88;5074376;28;20054;-75
2021/12/12 08:29:14;;;;;;;9.02;5.43;;;;;;;1.39;75.08;97683.72;5074056;28;20052;-75
2021/12/12 08:31:44;;;;;;;8.43;5.63;;;;;;;1.40;75.33;97685.34;5074369;28;20055;-75
2021/12/12 08:34:13;;;;;;;7.38;5.25;;;;;;;1.40;75.28;97687.91;5074795;28;20494;-75
2021/12/12 08:36:44;;;;;;;6.78;5.30;;;;;;;1.41;75.45;97687.81;5074356;28;20048;-75
2021/12/12 08:39:13;;;;;;;8.40;5.88;;;;;;;1.42;75.20;97683.50;5074006;28;20059;-75
2021/12/12 08:41:43;;;;;;;7.72;6.18;;;;;;;1.42;75.08;97679.22;5074058;28;20091;-75
2021/12/12 08:44:12;;;;;;;10.93;6.60;;;;;;;1.46;75.23;97674.69;5073355;28;20057;-75
2021/12/12 08:46:44;;;;;;;10.80;7.38;;;;;;;1.50;74.93;97680.47;5073379;28;20049;-74
2021/12/12 08:49:13;;;;;;;10.50;7.63;;;;;;;1.53;75.16;97673.38;5074077;28;20045;-75
2021/12/12 08:51:46;;;;;;;7.53;5.90;;;;;;;1.59;74.66;97677.28;5073470;28;20049;-75
2021/12/12 08:54:23;;;;;;;7.10;5.75;;;;;;;1.63;74.68;97687.28;5073553;28;20060;-75
2021/12/12 08:56:55;;;;;;;9.93;7.07;;;;;;;1.71;75.52;97679.06;5073266;28;20052;-74
2021/12/12 08:59:25;;;;;;;8.70;6.38;;;;;;;1.81;75.41;97680.09;5073482;28;20049;-75
2021/12/12 09:01:57;;;;;;;7.55;5.43;;;;;;;1.90;75.09;97694.13;5074691;28;20407;-74
2021/12/12 09:04:29;;;;;;;7.37;5.47;;;;;;;1.96;74.51;97698.84;5074248;28;20058;-75
2021/12/12 09:07:00;;;;;;;8.50;6.00;;;;;;;2.02;75.60;97698.47;5073656;28;20277;-74
2021/12/12 09:09:31;;;;;;;10.52;5.85;;;;;;;2.08;74.58;97697.25;5074138;28;20052;-75
2021/12/12 09:12:02;;;;;;;6.75;5.60;;;;;;;2.16;74.70;97696.72;5074059;28;20048;-75
2021/12/12 09:14:34;;;;;;;7.93;5.63;;;;;;;2.26;75.50;97692.63;5074356;28;20059;-75
2021/12/12 09:17:06;;;;;;;7.05;5.65;;;;;;;2.41;75.02;97699.31;5074217;28;20052;-75
2021/12/12 09:19:39;;;;;;;8.70;6.05;;;;;;;2.55;75.21;97697.53;5073393;28;20502;-75
2021/12/12 09:22:10;;;;;;;7.90;4.97;;;;;;;2.70;74.10;97688.78;5072656;28;20506;-75
2021/12/12 09:24:46;;;;;;;7.10;5.35;;;;;;;2.83;72.92;97684.41;5073028;28;20056;-74
2021/12/12 09:27:19;;;;;;;6.97;5.45;;;;;;;2.93;72.25;97683.75;5072920;28;20048;-75
2021/12/12 09:29:53;;;;;;;6.28;4.75;;;;;;;3.02;71.55;97688.28;5073221;28;20051;-75
2021/12/12 09:32:29;;;;;;;4.28;3.75;;;;;;;3.06;70.87;97679.38;5073114;28;20048;-75
2021/12/12 09:35:02;;;;;;;6.38;5.20;;;;;;;3.20;72.02;97676.69;5072242;28;20505;-75
2021/12/12 09:37:37;;;;;;;6.65;5.03;;;;;;;3.42;70.51;97677.72;5072281;28;20573;-74
2021/12/12 09:40:14;;;;;;;5.82;5.18;;;;;;;3.62;71.35;97674.50;5072872;28;20048;-75
2021/12/12 09:42:57;;;;;;;6.35;4.68;;;;;;;3.83;69.48;97668.72;5073186;28;20498;-75
2021/12/12 09:45:44;;;;;;;4.82;4.32;;;;;;;4.00;69.55;97664.88;5074854;28;20059;-75
2021/12/12 09:52:14;;;;;;;4.90;4.40;;;;;;;4.16;69.83;97672.31;5029217;28;20058;-73
2021/12/12 09:54:51;;;;;;;5.68;4.10;;;;;;;4.09;68.86;97669.38;5084842;28;20052;-75
2021/12/12 09:57:23;;;;;;;7.07;5.20;;;;;;;4.06;68.01;97674.75;5085294;28;20040;-75
2021/12/12 10:00:10;;;;;;;5.60;4.07;;;;;;;4.04;67.85;97661.13;5078584;28;20049;-74
2021/12/12 10:02:55;;;;;;;4.85;4.18;;;;;;;4.03;67.42;97657.75;5076672;28;20051;-75
2021/12/12 10:05:36;;;;;;;5.53;4.63;;;;;;;4.06;68.03;97660.09;5078695;28;20501;-75
2021/12/12 10:08:13;;;;;;;5.18;4.40;;;;;;;4.16;67.70;97657.66;5077218;28;20040;-75
2021/12/12 10:10:52;;;;;;;4.70;3.85;;;;;;;4.20;67.26;97655.63;5077523;28;20102;-75
2021/12/12 10:13:26;;;;;;;6.60;4.72;;;;;;;4.18;67.85;97652.38;5077567;28;20053;-75
2021/12/12 10:16:03;;;;;;;6.03;5.10;;;;;;;4.25;68.46;97653.56;5078446;28;20060;-75
2021/12/12 10:18:43;;;;;;;6.22;5.05;;;;;;;4.40;67.40;97654.97;5078118;28;20048;-76
2021/12/12 10:21:16;;;;;;;7.25;5.30;;;;;;;4.50;66.92;97663.66;5076964;28;20421;-75
2021/12/12 10:23:56;;;;;;;8.35;6.03;;;;;;;4.58;67.16;97657.09;5077191;28;20056;-75
2021/12/12 10:26:29;;;;;;;7.78;5.63;;;;;;;4.69;66.52;97654.50;5077017;28;20041;-75
2021/12/12 10:29:00;;;;;;;9.93;6.18;;;;;;;4.75;66.81;97657.41;5094929;22;22891;-74
2021/12/12 10:31:31;;;;;;;8.27;6.03;;;;;;;4.79;66.97;97665.75;5075700;28;20512;-74
2021/12/12 10:34:05;;;;;;;6.20;4.78;;;;;;;4.79;66.47;97658.00;5075751;28;20048;-74
2021/12/12 10:36:38;;;;;;;5.13;4.07;;;;;;;4.79;65.97;97662.34;5075580;28;20044;-73
2021/12/12 10:39:10;;;;;;;4.18;3.78;;;;;;;4.76;66.10;97658.22;5075443;28;20048;-74
2021/12/12 10:41:41;;;;;;;8.18;6.15;;;;;;;4.68;66.29;97655.41;5075479;28;20533;-74
2021/12/12 10:44:15;;;;;;;4.90;4.13;;;;;;;4.61;66.26;97664.59;5075514;28;20052;-74
2021/12/12 10:46:51;;;;;;;5.80;4.78;;;;;;;4.56;66.55;97656.38;5075106;28;20055;-74
2021/12/12 10:49:26;;;;;;;4.30;3.90;;;;;;;4.59;66.71;97653.53;5075237;28;20054;-74
2021/12/12 10:52:02;;;;;;;5.05;4.55;;;;;;;4.66;66.22;97652.16;5075729;28;20055;-74
2021/12/12 10:54:35;;;;;;;5.55;4.07;;;;;;;4.73;66.52;97653.31;5075670;28;20063;-73
2021/12/12 10:57:08;;;;;;;6.80;3.78;;;;;;;4.80;66.37;97648.47;5075229;28;20429;-74
2021/12/12 10:59:40;;;;;;;;;;;;;;;4.92;66.52;97648.34;5075960;28;20045;-74
2021/12/12 11:02:11;;;;;;;4.25;3.70;;;;;;;5.08;66.33;97647.16;5074923;28;19924;-74
2021/12/12 11:04:43;;;;;;;4.40;3.60;;;;;;;5.21;65.57;97640.06;5075165;28;20052;-74
2021/12/12 11:07:19;;;;;;;4.28;3.85;;;;;;;5.24;64.89;97637.22;5074822;28;20063;-74
2021/12/12 11:09:53;;;;;;;5.80;3.72;;;;;;;5.33;66.96;97641.63;5074651;28;20048;-74
2021/12/12 11:12:30;;;;;;;5.45;4.13;;;;;;;5.41;64.63;97638.44;5074738;28;20055;-74
2021/12/12 11:15:03;;;;;;;4.55;3.85;;;;;;;5.52;64.47;97629.81;5073906;28;20056;-74
2021/12/12 11:17:34;;;;;;;5.13;4.00;;;;;;;5.64;64.32;97634.00;5074477;28;20052;-74
2021/12/12 11:20:06;;;;;;;4.55;3.90;;;;;;;5.69;64.12;97639.63;5074527;28;20040;-75
2021/12/12 11:22:39;;;;;;;4.72;3.60;;;;;;;5.70;64.64;97632.66;5074576;28;20067;-75
2021/12/12 11:25:10;;;;;;;3.85;3.20;;;;;;;5.76;66.90;97627.81;5074600;28;20045;-74
2021/12/12 11:27:43;;;;;;;4.72;3.25;;;;;;;5.83;64.60;97632.50;5074359;28;20056;-74
2021/12/12 11:30:18;;;;;;;49.13;25.98;;;;;;;5.93;66.54;97628.19;5074547;28;20045;-74
2021/12/12 11:32:46;;;;;;;12.20;7.68;;;;;;;6.08;66.99;97626.97;5075047;28;20052;-75
2021/12/12 11:35:18;;;;;;;2.83;2.15;;;;;;;6.24;62.59;97625.66;5074336;28;20071;-74
2021/12/12 11:37:55;;;;;;;2.80;1.73;;;;;;;6.42;62.90;97616.31;5073809;28;20055;-75
2021/12/12 11:40:28;;;;;;;2.00;1.80;;;;;;;6.49;63.81;97614.84;5073982;28;20494;-74
2021/12/12 11:43:02;;;;;;;2.30;2.10;;;;;;;6.55;64.20;97614.31;5074581;28;20055;-74
2021/12/12 11:45:32;;;;;;;3.80;3.40;;;;;;;6.60;62.49;97614.78;5074239;28;20063;-74
2021/12/12 11:48:10;;;;;;;4.95;4.10;;;;;;;6.67;64.06;97614.22;5073918;28;20053;-74
2021/12/12 11:50:46;;;;;;;5.38;3.75;;;;;;;6.77;61.71;97620.25;5074105;28;20410;-75
2021/12/12 11:53:20;;;;;;;3.92;3.33;;;;;;;6.88;63.37;97620.16;5074205;28;20059;-74
2021/12/12 11:55:54;;;;;;;2.33;2.05;;;;;;;6.94;62.83;97618.81;5073810;28;20067;-74
2021/12/12 11:58:29;;;;;;;2.20;2.00;;;;;;;6.91;60.13;97619.06;5074031;28;20044;-74
2021/12/12 12:01:04;;;;;;;4.30;2.38;;;;;;;6.85;61.47;97617.84;5073821;28;20044;-74
2021/12/12 12:03:49;;;;;;;2.35;2.15;;;;;;;6.75;62.34;97614.38;5074149;28;20053;-74
2021/12/12 12:06:23;;;;;;;2.20;2.00;;;;;;;6.70;63.63;97622.56;5073553;28;20060;-74
2021/12/12 12:09:11;;;;;;;2.80;1.92;;;;;;;6.69;62.04;97620.09;5073538;28;20048;-74
2021/12/12 12:11:56;;;;;;;2.20;1.80;;;;;;;6.73;61.40;97618.88;5073633;28;20506;-74
2021/12/12 12:14:30;;;;;;;2.50;2.30;;;;;;;6.81;60.91;97613.84;5073889;28;20056;-74
2021/12/12 12:17:07;;;;;;;2.08;1.83;;;;;;;6.91;62.82;97614.72;5073134;28;20056;-74
2021/12/12 12:19:55;;;;;;;1.63;1.52;;;;;;;6.91;60.73;97608.69;5073644;28;20053;-74
2021/12/12 12:22:34;;;;;;;1.85;1.75;;;;;;;6.81;61.10;97609.50;5073491;28;20403;-74